createdAt,value
2022-08-03T00:01:40.265Z,101026.28
2022-08-03T00:04:42.766Z,101019.19
2022-08-03T00:07:44.965Z,101025.28
2022-08-03T00:10:47.792Z,101036.41
2022-08-03T00:13:50.134Z,101035.53
2022-08-03T00:16:52.529Z,101033.91
2022-08-03T00:19:54.714Z,101044.47
2022-08-03T00:22:57.031Z,101033.81
2022-08-03T00:26:00.220Z,101038.50
2022-08-03T00:29:02.676Z,101018.19
2022-08-03T00:32:05.130Z,101043.88
2022-08-03T00:35:09.130Z,101047.50
2022-08-03T00:38:12.632Z,101041.38
2022-08-03T00:41:15.653Z,101057.53
2022-08-03T00:44:17.949Z,101037.34
2022-08-03T00:47:20.333Z,101049.88
2022-08-03T00:50:24.241Z,101053.50
2022-08-03T00:53:27.741Z,101052.75
2022-08-03T00:56:30.064Z,101051.97
2022-08-03T00:59:32.649Z,101051.81
2022-08-03T01:02:35.737Z,101061.53
2022-08-03T01:05:56.499Z,101058.06
2022-08-03T01:09:17.273Z,101058.38
2022-08-03T01:12:33.246Z,101038.88
2022-08-03T01:15:58.804Z,101045.00
2022-08-03T01:19:22.782Z,101042.31
2022-08-03T01:22:50.146Z,101043.25
2022-08-03T01:26:28.195Z,101041.44
2022-08-03T01:29:55.019Z,101038.72
2022-08-03T01:33:17.763Z,101045.06
2022-08-03T01:36:23.479Z,101040.72
2022-08-03T01:39:26.632Z,101036.56
2022-08-03T01:42:29.769Z,101032.00
2022-08-03T01:45:34.246Z,101022.28
2022-08-03T01:48:38.789Z,101020.75
2022-08-03T01:52:03.549Z,101032.28
2022-08-03T01:55:06.435Z,101023.25
2022-08-03T01:58:08.885Z,101019.66
2022-08-03T02:01:12.047Z,101025.03
2022-08-03T02:04:17.833Z,101034.41
2022-08-03T02:07:20.199Z,101011.75
2022-08-03T02:10:35.136Z,101029.66
2022-08-03T02:13:38.533Z,101024.09
2022-08-03T02:16:41.077Z,101011.31
2022-08-03T02:19:43.851Z,101022.88
2022-08-03T02:22:46.854Z,101024.75
2022-08-03T02:25:53.245Z,101022.28
2022-08-03T02:28:58.113Z,101025.84
2022-08-03T02:32:04.517Z,101017.59
2022-08-03T02:35:11.423Z,101018.44
2022-08-03T02:38:14.364Z,101010.47
2022-08-03T02:41:18.535Z,101012.13
2022-08-03T02:44:26.643Z,101013.94
2022-08-03T02:47:53.863Z,101023.00
2022-08-03T02:50:53.544Z,101023.00
2022-08-03T02:53:57.002Z,101023.09
2022-08-03T02:56:59.858Z,101016.84
2022-08-03T03:00:02.369Z,101019.63
2022-08-03T03:03:04.746Z,101029.25
2022-08-03T03:06:08.265Z,101033.72
2022-08-03T03:09:11.162Z,101028.41
2022-08-03T03:12:14.571Z,101029.38
2022-08-03T03:15:16.812Z,101025.84
2022-08-03T03:18:22.785Z,101035.69
2022-08-03T03:21:25.418Z,101039.16
2022-08-03T03:24:31.233Z,101038.16
2022-08-03T03:27:34.115Z,101048.00
2022-08-03T03:30:36.618Z,101044.34
2022-08-03T03:33:39.180Z,101047.88
2022-08-03T03:36:41.760Z,101049.69
2022-08-03T03:39:44.219Z,101054.03
2022-08-03T03:42:46.787Z,101050.59
2022-08-03T03:45:49.527Z,101050.59
2022-08-03T03:48:52.065Z,101050.69
2022-08-03T03:51:55.608Z,101054.09
2022-08-03T03:55:01.028Z,101056.00
2022-08-03T03:58:04.213Z,101057.84
2022-08-03T04:01:06.730Z,101052.34
2022-08-03T04:04:27.741Z,101062.81
2022-08-03T04:07:55.552Z,101066.97
2022-08-03T04:11:31.705Z,101066.88
2022-08-03T04:14:35.439Z,101066.72
2022-08-03T04:17:37.546Z,101070.19
2022-08-03T04:20:41.020Z,101067.25
2022-08-03T04:23:45.228Z,101074.31
2022-08-03T04:26:52.723Z,101066.28
2022-08-03T04:29:57.502Z,101076.81
2022-08-03T04:33:01.279Z,101073.09
2022-08-03T04:36:07.283Z,101086.19
2022-08-03T04:39:20.347Z,101094.97
2022-08-03T04:42:24.868Z,101086.78
2022-08-03T04:45:28.227Z,101091.06
2022-08-03T04:48:30.468Z,101091.78
2022-08-03T04:51:34.882Z,101089.88
2022-08-03T04:54:50.018Z,101087.09
2022-08-03T04:57:53.362Z,101079.84
2022-08-03T05:00:55.630Z,101083.28
2022-08-03T05:03:58.023Z,101095.41
2022-08-03T05:07:00.243Z,101091.53
2022-08-03T05:10:18.129Z,101081.53
2022-08-03T05:13:20.910Z,101105.59
2022-08-03T05:16:23.623Z,101098.19
2022-08-03T05:19:25.782Z,101078.72
2022-08-03T05:22:28.131Z,101090.66
2022-08-03T05:25:30.683Z,101093.34
2022-08-03T05:28:33.214Z,101090.41
2022-08-03T05:31:35.551Z,101107.00
2022-08-03T05:34:38.183Z,101108.84
2022-08-03T05:37:40.351Z,101107.84
2022-08-03T05:41:21.060Z,101109.38
2022-08-03T05:44:20.345Z,101093.06
2022-08-03T05:47:22.796Z,101103.75
2022-08-03T05:50:25.161Z,101115.19
2022-08-03T05:53:27.627Z,101120.28
2022-08-03T05:56:30.006Z,101126.06
2022-08-03T05:59:39.475Z,101121.22
2022-08-03T06:02:54.729Z,101121.72
2022-08-03T06:06:00.370Z,101126.91
2022-08-03T06:09:02.930Z,101133.75
2022-08-03T06:12:05.638Z,101137.06
2022-08-03T06:15:11.550Z,101132.28
2022-08-03T06:18:14.477Z,101138.22
2022-08-03T06:21:16.674Z,101128.94
2022-08-03T06:24:19.161Z,101120.63
2022-08-03T06:27:36.315Z,101127.50
2022-08-03T06:30:40.560Z,101141.59
2022-08-03T06:34:30.882Z,101119.00
2022-08-03T06:37:05.358Z,101131.69
2022-08-03T06:40:08.105Z,101125.59
2022-08-03T06:43:12.506Z,101130.34
2022-08-03T06:46:15.274Z,101130.72
2022-08-03T06:49:17.983Z,101115.19
2022-08-03T06:52:37.936Z,101129.47
2022-08-03T06:55:42.513Z,101116.56
2022-08-03T06:58:44.775Z,101123.25
2022-08-03T07:01:47.268Z,101117.63
2022-08-03T07:04:49.766Z,101124.50
2022-08-03T07:07:56.720Z,101108.19
2022-08-03T07:10:58.841Z,101123.19
2022-08-03T07:14:01.307Z,101131.88
2022-08-03T07:17:04.622Z,101122.44
2022-08-03T07:20:15.292Z,101137.28
2022-08-03T07:23:19.104Z,101131.03
2022-08-03T07:26:22.006Z,101132.03
2022-08-03T07:29:24.151Z,101134.66
2022-08-03T07:32:27.167Z,101134.59
2022-08-03T07:35:29.403Z,101118.69
2022-08-03T07:38:31.894Z,101128.16
2022-08-03T07:41:34.181Z,101121.09
2022-08-03T07:44:36.920Z,101112.22
2022-08-03T07:47:39.205Z,101120.19
2022-08-03T07:50:41.679Z,101122.28
2022-08-03T07:53:47.385Z,101127.66
2022-08-03T07:56:50.405Z,101119.59
2022-08-03T08:00:01.820Z,101134.41
2022-08-03T08:03:14.549Z,101128.72
2022-08-03T08:06:17.986Z,101116.28
2022-08-03T08:09:20.709Z,101119.38
2022-08-03T08:12:22.931Z,101120.16
2022-08-03T08:15:25.555Z,101117.19
2022-08-03T08:18:29.772Z,101117.13
2022-08-03T08:21:52.921Z,101110.00
2022-08-03T08:24:54.613Z,101107.50
2022-08-03T08:28:29.587Z,101118.97
2022-08-03T08:31:20.855Z,101104.69
2022-08-03T08:34:23.622Z,101115.53
2022-08-03T08:37:25.949Z,101120.22
2022-08-03T08:40:28.992Z,101115.56
2022-08-03T08:43:31.533Z,101114.63
2022-08-03T08:46:34.442Z,101118.66
2022-08-03T08:49:39.166Z,101121.13
2022-08-03T08:52:42.377Z,101117.66
2022-08-03T08:55:57.955Z,101109.16
2022-08-03T08:59:03.085Z,101130.66
2022-08-03T09:02:06.137Z,101102.94
2022-08-03T09:05:16.983Z,101121.06
2022-08-03T09:08:19.477Z,101125.78
2022-08-03T09:12:00.819Z,101120.16
2022-08-03T09:15:07.614Z,101117.53
2022-08-03T09:18:09.765Z,101121.81
2022-08-03T09:21:31.574Z,101123.66
2022-08-03T09:24:41.249Z,101113.13
2022-08-03T09:27:45.321Z,101120.75
2022-08-03T09:30:59.652Z,101110.47
2022-08-03T09:34:05.779Z,101108.69
2022-08-03T09:37:18.482Z,101109.84
2022-08-03T09:40:41.368Z,101110.91
2022-08-03T09:43:47.577Z,101102.78
2022-08-03T09:46:52.055Z,101107.56
2022-08-03T09:50:02.264Z,101112.66
2022-08-03T09:53:04.766Z,101095.63
2022-08-03T09:56:36.006Z,101101.06
2022-08-03T09:59:31.416Z,101103.47
2022-08-03T10:02:34.222Z,101096.88
2022-08-03T10:05:36.977Z,101095.63
2022-08-03T10:08:39.607Z,101103.47
2022-08-03T10:11:43.646Z,101084.38
2022-08-03T10:14:46.770Z,101105.16
2022-08-03T10:17:48.981Z,101108.59
2022-08-03T10:20:57.296Z,101104.78
2022-08-03T10:24:00.060Z,101088.38
2022-08-03T10:27:07.115Z,101091.22
2022-08-03T10:30:11.506Z,101098.34
2022-08-03T10:33:51.590Z,101095.41
2022-08-03T10:36:53.745Z,101093.31
2022-08-03T10:39:58.448Z,101092.91
2022-08-03T10:43:09.179Z,101102.16
2022-08-03T10:46:11.861Z,101097.91
2022-08-03T10:49:33.711Z,101090.63
2022-08-03T10:52:57.133Z,101098.66
2022-08-03T10:56:25.408Z,101096.31
2022-08-03T11:00:00.219Z,101097.28
2022-08-03T11:03:16.193Z,101102.84
2022-08-03T11:06:24.726Z,101095.97
2022-08-03T11:09:44.537Z,101089.44
2022-08-03T11:12:47.719Z,101075.66
2022-08-03T11:15:53.158Z,101088.75
2022-08-03T11:19:09.136Z,101086.41
2022-08-03T11:22:11.793Z,101083.66
2022-08-03T11:25:53.779Z,101080.72
2022-08-03T11:28:40.357Z,101074.09
2022-08-03T11:31:51.501Z,101068.94
2022-08-03T11:35:36.714Z,101068.41
2022-08-03T11:39:13.220Z,101060.28
2022-08-03T11:42:22.382Z,101067.09
2022-08-03T11:45:25.138Z,101054.28
2022-08-03T11:48:34.556Z,101067.34
2022-08-03T11:51:37.909Z,101066.72
2022-08-03T11:54:41.012Z,101059.63
2022-08-03T11:59:18.698Z,101058.22
2022-08-03T12:01:07.940Z,101049.28
2022-08-03T12:04:11.742Z,101056.97
2022-08-03T12:07:13.995Z,101064.97
2022-08-03T12:10:37.475Z,101050.66
2022-08-03T12:14:43.877Z,101060.69
2022-08-03T12:17:06.922Z,101056.03
2022-08-03T12:20:34.783Z,101053.91
2022-08-03T12:23:39.389Z,101047.66
2022-08-03T12:26:58.988Z,101059.38
2022-08-03T12:30:03.618Z,101056.28
2022-08-03T12:33:34.805Z,101055.84
2022-08-03T12:36:39.199Z,101055.94
2022-08-03T12:40:02.566Z,101054.22
2022-08-03T12:43:12.499Z,101042.31
2022-08-03T12:46:16.609Z,101044.66
2022-08-03T12:49:20.281Z,101049.59
2022-08-03T12:52:23.692Z,101033.81
2022-08-03T12:55:56.279Z,101023.47
2022-08-03T12:58:58.915Z,101031.09
2022-08-03T13:02:02.017Z,101024.81
2022-08-03T13:05:14.321Z,101033.91
2022-08-03T13:08:21.333Z,101030.50
2022-08-03T13:11:55.948Z,101025.53
2022-08-03T13:14:50.896Z,101016.28
2022-08-03T13:17:53.176Z,101022.25
2022-08-03T13:20:55.697Z,101016.63
2022-08-03T13:23:58.033Z,101024.31
2022-08-03T13:27:22.097Z,101023.38
2022-08-03T13:30:29.789Z,101015.38
2022-08-03T13:33:33.747Z,101018.94
2022-08-03T13:36:59.391Z,101000.56
2022-08-03T13:40:02.717Z,101003.59
2022-08-03T13:43:05.586Z,101001.34
2022-08-03T13:46:08.246Z,101002.41
2022-08-03T13:49:10.627Z,101004.25
2022-08-03T13:52:13.254Z,101009.59
2022-08-03T13:55:15.629Z,101003.44
2022-08-03T13:58:18.137Z,100998.41
2022-08-03T14:01:53.692Z,100996.63
2022-08-03T14:04:43.057Z,100994.28
2022-08-03T14:07:45.449Z,101002.97
2022-08-03T14:10:48.103Z,101002.75
2022-08-03T14:13:50.517Z,100996.38
2022-08-03T14:16:53.236Z,100993.13
2022-08-03T14:19:59.123Z,100997.03
2022-08-03T14:23:03.007Z,100988.66
2022-08-03T14:26:06.727Z,100983.47
2022-08-03T14:29:09.212Z,100972.69
2022-08-03T14:32:13.499Z,100971.66
2022-08-03T14:35:16.160Z,100978.56
2022-08-03T14:38:19.313Z,100973.91
2022-08-03T14:41:21.976Z,100972.63
2022-08-03T14:44:24.354Z,100969.66
2022-08-03T14:47:27.144Z,100970.19
2022-08-03T14:50:42.898Z,100970.72
2022-08-03T14:53:47.193Z,100969.72
2022-08-03T14:56:49.568Z,100975.94
2022-08-03T14:59:56.771Z,100962.50
2022-08-03T15:02:59.797Z,100963.25
2022-08-03T15:06:02.392Z,100967.63
2022-08-03T15:09:21.388Z,100973.25
2022-08-03T15:12:26.213Z,100967.56
2022-08-03T15:15:28.490Z,100957.97
2022-08-03T15:18:31.017Z,100965.88
2022-08-03T15:21:46.833Z,100964.03
2022-08-03T15:24:50.516Z,100958.00
2022-08-03T15:28:03.425Z,100959.88
2022-08-03T15:31:07.488Z,100952.25
2022-08-03T15:34:11.880Z,100958.28
2022-08-03T15:37:16.320Z,100960.31
2022-08-03T15:40:19.509Z,100953.91
2022-08-03T15:43:23.266Z,100951.03
2022-08-03T15:46:29.946Z,100950.69
2022-08-03T15:49:32.878Z,100953.91
2022-08-03T15:52:36.760Z,100944.56
2022-08-03T15:55:40.511Z,100936.16
2022-08-03T15:59:04.068Z,100946.41
2022-08-03T16:02:05.583Z,100936.56
2022-08-03T16:05:08.554Z,100945.19
2022-08-03T16:08:13.860Z,100925.81
2022-08-03T16:11:16.552Z,100923.56
2022-08-03T16:14:32.020Z,100925.91
2022-08-03T16:17:39.012Z,100923.53
2022-08-03T16:20:41.791Z,100912.84
2022-08-03T16:23:47.347Z,100915.81
2022-08-03T16:26:50.067Z,100917.25
2022-08-03T16:29:52.517Z,100920.66
2022-08-03T16:32:54.997Z,100916.72
2022-08-03T16:35:57.342Z,100917.31
2022-08-03T16:38:59.934Z,100917.50
2022-08-03T16:42:02.501Z,100915.44
2022-08-03T16:45:06.756Z,100915.63
2022-08-03T16:48:09.244Z,100916.53
2022-08-03T16:51:11.797Z,100922.31
2022-08-03T16:54:15.583Z,100921.94
2022-08-03T16:57:56.028Z,100915.16
2022-08-03T17:00:46.420Z,100918.78
2022-08-03T17:04:01.252Z,100922.03
2022-08-03T17:07:05.239Z,100919.66
2022-08-03T17:10:08.599Z,100926.44
2022-08-03T17:13:11.104Z,100920.84
2022-08-03T17:16:15.326Z,100926.88
2022-08-03T17:19:18.468Z,100929.16
2022-08-03T17:22:25.614Z,100928.59
2022-08-03T17:25:39.678Z,100929.31
2022-08-03T17:28:57.353Z,100941.44
2022-08-03T17:32:06.507Z,100944.44
2022-08-03T17:35:12.731Z,100947.91
2022-08-03T17:38:22.416Z,100947.63
2022-08-03T17:41:26.401Z,100947.47
2022-08-03T17:44:41.273Z,100960.81
2022-08-03T17:47:57.112Z,100964.34
2022-08-03T17:51:04.356Z,100964.34
2022-08-03T17:54:30.639Z,100965.69
2022-08-03T17:58:02.721Z,100967.28
2022-08-03T18:02:02.054Z,100977.56
2022-08-03T18:04:57.362Z,100979.56
2022-08-03T18:08:06.937Z,100985.69
2022-08-03T18:11:16.288Z,100980.38
2022-08-03T18:14:32.529Z,100985.25
2022-08-03T18:17:55.108Z,100990.09
2022-08-03T18:21:06.475Z,100987.88
2022-08-03T18:24:11.462Z,100990.88
2022-08-03T18:27:15.854Z,100987.44
2022-08-03T18:30:18.197Z,101004.03
2022-08-03T18:34:17.132Z,101008.19
2022-08-03T18:36:49.597Z,101012.47
2022-08-03T18:39:55.269Z,101017.09
2022-08-03T18:43:08.867Z,101019.06
2022-08-03T18:46:30.225Z,101022.59
2022-08-03T18:49:36.084Z,101021.47
2022-08-03T18:52:57.830Z,101024.25
2022-08-03T18:56:04.124Z,101026.88
2022-08-03T18:59:30.124Z,101028.81
2022-08-03T19:02:50.085Z,101026.53
2022-08-03T19:06:17.489Z,101031.94
2022-08-03T19:09:41.168Z,101029.34
2022-08-03T19:12:56.004Z,101025.50
2022-08-03T19:16:08.809Z,101031.84
2022-08-03T19:19:22.745Z,101029.84
2022-08-03T19:22:33.066Z,101029.69
2022-08-03T19:25:42.765Z,101038.59
2022-08-03T19:28:55.143Z,101029.28
2022-08-03T19:32:07.848Z,101035.44
2022-08-03T19:35:13.481Z,101020.13
2022-08-03T19:38:31.962Z,101029.75
2022-08-03T19:41:41.987Z,101031.34
2022-08-03T19:44:50.997Z,101026.63
2022-08-03T19:48:08.045Z,101036.19
2022-08-03T19:51:12.769Z,101034.97
2022-08-03T19:54:29.429Z,101029.09
2022-08-03T19:57:34.898Z,101039.63
2022-08-03T20:00:40.095Z,101039.06
2022-08-03T20:03:52.737Z,101041.44
2022-08-03T20:07:04.719Z,101030.41
2022-08-03T20:10:17.805Z,101040.41
2022-08-03T20:13:28.343Z,101047.88
2022-08-03T20:16:31.665Z,101053.16
2022-08-03T20:19:35.166Z,101048.91
2022-08-03T20:22:46.173Z,101049.16
2022-08-03T20:29:17.912Z,101042.53
2022-08-03T20:32:24.698Z,101039.31
2022-08-03T20:35:32.121Z,101047.94
2022-08-03T20:38:35.080Z,101041.16
2022-08-03T20:41:46.704Z,101047.63
2022-08-03T20:45:04.264Z,101051.63
2022-08-03T20:48:12.884Z,101048.34
2022-08-03T20:51:49.129Z,101041.41
2022-08-03T20:54:44.924Z,101050.81
2022-08-03T20:57:51.830Z,101056.13
2022-08-03T21:00:56.974Z,101060.41
2022-08-03T21:03:59.246Z,101057.06
2022-08-03T21:07:16.651Z,101059.00
2022-08-03T21:10:21.174Z,101053.72
2022-08-03T21:13:06.880Z,101050.31
2022-08-03T21:13:56.620Z,101052.16
2022-08-03T21:16:59.023Z,101047.47
2022-08-03T21:20:03.287Z,101056.44
2022-08-03T21:23:10.058Z,101057.50
2022-08-03T21:26:34.045Z,101064.84
2022-08-03T21:29:53.319Z,101056.91
2022-08-03T21:32:58.146Z,101061.59
2022-08-03T21:36:02.081Z,101059.91
2022-08-03T21:39:09.229Z,101061.03
2022-08-03T21:42:12.990Z,101064.94
2022-08-03T21:45:17.653Z,101065.13
2022-08-03T21:48:21.774Z,101058.88
2022-08-03T21:51:26.013Z,101063.47
2022-08-03T21:54:36.834Z,101068.88
2022-08-03T21:57:44.736Z,101061.13
2022-08-03T22:00:47.577Z,101067.47
2022-08-03T22:03:54.039Z,101064.25
2022-08-03T22:06:56.863Z,101067.22
2022-08-03T22:10:01.146Z,101066.41
2022-08-03T22:13:03.686Z,101064.06
2022-08-03T22:16:07.060Z,101066.91
2022-08-03T22:19:09.341Z,101065.91
2022-08-03T22:22:13.983Z,101070.63
2022-08-03T22:25:16.646Z,101076.41
2022-08-03T22:28:20.368Z,101068.06
2022-08-03T22:31:57.220Z,101072.69
2022-08-03T22:34:46.897Z,101073.53
2022-08-03T22:37:49.968Z,101077.19
2022-08-03T22:40:55.177Z,101072.75
2022-08-03T22:43:58.901Z,101074.66
2022-08-03T22:47:07.948Z,101071.09
2022-08-03T22:50:32.429Z,101072.06
2022-08-03T22:53:36.163Z,101070.41
2022-08-03T22:56:39.073Z,101067.00
2022-08-03T22:59:42.128Z,101078.53
2022-08-03T23:02:48.130Z,101072.50
2022-08-03T23:06:01.276Z,101073.34
2022-08-03T23:09:10.345Z,101065.34
2022-08-03T23:12:18.398Z,101064.47
2022-08-03T23:15:20.892Z,101068.03
2022-08-03T23:18:24.180Z,101061.81
2022-08-03T23:21:53.805Z,101065.53
2022-08-03T23:24:51.351Z,101067.41
2022-08-03T23:28:04.538Z,101064.00
2022-08-03T23:31:08.707Z,101062.25
2022-08-03T23:34:31.653Z,101062.41
2022-08-03T23:38:21.622Z,101067.94
2022-08-03T23:40:59.415Z,101053.09
2022-08-03T23:44:03.651Z,101063.66
2022-08-03T23:47:06.012Z,101059.09
2022-08-03T23:50:08.520Z,101066.38
2022-08-03T23:53:39.957Z,101056.69
2022-08-03T23:56:51.666Z,101060.28
